sensor_id;sensor_type;location;lat;lon;timestamp;P1;durP1;ratioP1;P2;durP2;ratioP2
11151;SDS011;5630;49.342;10.802;2023-05-07T00:02:20;4.03;;;3.63;;
11151;SDS011;5630;49.342;10.802;2023-05-07T00:04:46;4.17;;;3.77;;
11151;SDS011;5630;49.342;10.802;2023-05-07T00:07:12;5.50;;;3.60;;
11151;SDS011;5630;49.342;10.802;2023-05-07T00:09:37;4.07;;;3.40;;
11151;SDS011;5630;49.342;10.802;2023-05-07T00:12:03;3.90;;;3.50;;
11151;SDS011;5630;49.342;10.802;2023-05-07T00:14:29;5.60;;;3.90;;
11151;SDS011;5630;49.342;10.802;2023-05-07T00:16:54;4.37;;;3.73;;
11151;SDS011;5630;49.342;10.802;2023-05-07T00:19:20;6.77;;;4.57;;
11151;SDS011;5630;49.342;10.802;2023-05-07T00:21:46;4.33;;;3.93;;
11151;SDS011;5630;49.342;10.802;2023-05-07T00:24:11;5.47;;;3.93;;
11151;SDS011;5630;49.342;10.802;2023-05-07T00:26:37;5.73;;;4.27;;
11151;SDS011;5630;49.342;10.802;2023-05-07T00:29:02;6.20;;;4.03;;
11151;SDS011;5630;49.342;10.802;2023-05-07T00:31:28;5.40;;;4.43;;
11151;SDS011;5630;49.342;10.802;2023-05-07T00:33:54;5.50;;;4.20;;
11151;SDS011;5630;49.342;10.802;2023-05-07T00:36:19;9.03;;;4.50;;
11151;SDS011;5630;49.342;10.802;2023-05-07T00:38:45;5.23;;;4.47;;
11151;SDS011;5630;49.342;10.802;2023-05-07T00:41:10;6.60;;;4.40;;
11151;SDS011;5630;49.342;10.802;2023-05-07T00:43:36;5.73;;;5.10;;
11151;SDS011;5630;49.342;10.802;2023-05-07T00:46:01;7.43;;;5.60;;
11151;SDS011;5630;49.342;10.802;2023-05-07T00:48:27;5.17;;;4.63;;
11151;SDS011;5630;49.342;10.802;2023-05-07T00:50:53;7.73;;;4.87;;
11151;SDS011;5630;49.342;10.802;2023-05-07T00:53:18;5.97;;;5.37;;
11151;SDS011;5630;49.342;10.802;2023-05-07T00:55:45;6.30;;;5.10;;
11151;SDS011;5630;49.342;10.802;2023-05-07T00:58:10;6.63;;;5.07;;
11151;SDS011;5630;49.342;10.802;2023-05-07T01:00:36;5.53;;;4.77;;
11151;SDS011;5630;49.342;10.802;2023-05-07T01:03:01;6.10;;;4.60;;
11151;SDS011;5630;49.342;10.802;2023-05-07T01:05:27;5.70;;;4.73;;
11151;SDS011;5630;49.342;10.802;2023-05-07T01:07:55;6.23;;;4.90;;
11151;SDS011;5630;49.342;10.802;2023-05-07T01:10:22;5.63;;;5.07;;
11151;SDS011;5630;49.342;10.802;2023-05-07T01:12:49;7.23;;;4.67;;
11151;SDS011;5630;49.342;10.802;2023-05-07T01:15:15;6.67;;;4.57;;
11151;SDS011;5630;49.342;10.802;2023-05-07T01:17:42;5.53;;;4.73;;
11151;SDS011;5630;49.342;10.802;2023-05-07T01:20:08;6.27;;;4.60;;
11151;SDS011;5630;49.342;10.802;2023-05-07T01:22:38;8.37;;;4.67;;
11151;SDS011;5630;49.342;10.802;2023-05-07T01:25:04;5.67;;;4.77;;
11151;SDS011;5630;49.342;10.802;2023-05-07T01:27:30;4.87;;;4.40;;
11151;SDS011;5630;49.342;10.802;2023-05-07T01:29:58;5.80;;;4.40;;
11151;SDS011;5630;49.342;10.802;2023-05-07T01:32:27;5.20;;;4.60;;
11151;SDS011;5630;49.342;10.802;2023-05-07T01:34:58;5.00;;;4.50;;
11151;SDS011;5630;49.342;10.802;2023-05-07T01:37:25;5.43;;;4.00;;
11151;SDS011;5630;49.342;10.802;2023-05-07T01:39:52;8.43;;;4.30;;
11151;SDS011;5630;49.342;10.802;2023-05-07T01:42:18;5.17;;;4.50;;
11151;SDS011;5630;49.342;10.802;2023-05-07T01:44:44;6.10;;;4.53;;
11151;SDS011;5630;49.342;10.802;2023-05-07T01:47:10;6.17;;;4.60;;
11151;SDS011;5630;49.342;10.802;2023-05-07T01:49:37;5.47;;;4.97;;
11151;SDS011;5630;49.342;10.802;2023-05-07T01:52:03;5.13;;;4.40;;
11151;SDS011;5630;49.342;10.802;2023-05-07T01:54:29;5.87;;;4.67;;
11151;SDS011;5630;49.342;10.802;2023-05-07T01:56:58;5.30;;;4.80;;
11151;SDS011;5630;49.342;10.802;2023-05-07T01:59:24;5.47;;;4.07;;
11151;SDS011;5630;49.342;10.802;2023-05-07T02:01:50;4.50;;;4.10;;
11151;SDS011;5630;49.342;10.802;2023-05-07T02:04:16;6.93;;;4.00;;
11151;SDS011;5630;49.342;10.802;2023-05-07T02:06:42;4.80;;;3.70;;
11151;SDS011;5630;49.342;10.802;2023-05-07T02:09:08;4.47;;;4.07;;
11151;SDS011;5630;49.342;10.802;2023-05-07T02:11:36;5.10;;;3.40;;
11151;SDS011;5630;49.342;10.802;2023-05-07T02:14:01;5.30;;;3.60;;
11151;SDS011;5630;49.342;10.802;2023-05-07T02:16:27;7.67;;;3.43;;
11151;SDS011;5630;49.342;10.802;2023-05-07T02:18:52;4.07;;;3.30;;
11151;SDS011;5630;49.342;10.802;2023-05-07T02:21:18;3.87;;;3.40;;
11151;SDS011;5630;49.342;10.802;2023-05-07T02:23:44;3.33;;;3.03;;
11151;SDS011;5630;49.342;10.802;2023-05-07T02:26:10;3.37;;;2.77;;
11151;SDS011;5630;49.342;10.802;2023-05-07T02:28:36;4.80;;;2.80;;
11151;SDS011;5630;49.342;10.802;2023-05-07T02:31:04;6.53;;;2.70;;
11151;SDS011;5630;49.342;10.802;2023-05-07T02:33:30;5.87;;;3.40;;
11151;SDS011;5630;49.342;10.802;2023-05-07T02:35:56;3.80;;;3.00;;
11151;SDS011;5630;49.342;10.802;2023-05-07T02:38:22;4.37;;;3.37;;
11151;SDS011;5630;49.342;10.802;2023-05-07T02:40:48;3.97;;;3.20;;
11151;SDS011;5630;49.342;10.802;2023-05-07T02:43:13;4.40;;;2.90;;
11151;SDS011;5630;49.342;10.802;2023-05-07T02:45:39;3.03;;;2.83;;
11151;SDS011;5630;49.342;10.802;2023-05-07T02:48:04;7.57;;;3.20;;
11151;SDS011;5630;49.342;10.802;2023-05-07T02:50:31;5.23;;;3.20;;
11151;SDS011;5630;49.342;10.802;2023-05-07T02:52:57;3.90;;;2.97;;
11151;SDS011;5630;49.342;10.802;2023-05-07T02:55:23;4.03;;;3.17;;
11151;SDS011;5630;49.342;10.802;2023-05-07T02:57:48;4.33;;;2.83;;
11151;SDS011;5630;49.342;10.802;2023-05-07T03:00:16;3.30;;;3.00;;
11151;SDS011;5630;49.342;10.802;2023-05-07T03:02:42;4.53;;;2.93;;
11151;SDS011;5630;49.342;10.802;2023-05-07T03:05:09;4.50;;;3.43;;
11151;SDS011;5630;49.342;10.802;2023-05-07T03:07:35;2.97;;;2.60;;
11151;SDS011;5630;49.342;10.802;2023-05-07T03:10:01;4.03;;;2.97;;
11151;SDS011;5630;49.342;10.802;2023-05-07T03:12:26;3.50;;;2.83;;
11151;SDS011;5630;49.342;10.802;2023-05-07T03:14:52;3.30;;;2.97;;
11151;SDS011;5630;49.342;10.802;2023-05-07T03:17:18;3.37;;;3.03;;
11151;SDS011;5630;49.342;10.802;2023-05-07T03:19:43;3.37;;;3.00;;
11151;SDS011;5630;49.342;10.802;2023-05-07T03:22:09;3.50;;;2.70;;
11151;SDS011;5630;49.342;10.802;2023-05-07T03:24:34;3.67;;;2.90;;
11151;SDS011;5630;49.342;10.802;2023-05-07T03:27:00;3.40;;;3.10;;
11151;SDS011;5630;49.342;10.802;2023-05-07T03:29:26;3.83;;;3.13;;
11151;SDS011;5630;49.342;10.802;2023-05-07T03:31:51;5.03;;;3.20;;
11151;SDS011;5630;49.342;10.802;2023-05-07T03:34:17;5.10;;;3.47;;
11151;SDS011;5630;49.342;10.802;2023-05-07T03:36:47;3.53;;;3.03;;
11151;SDS011;5630;49.342;10.802;2023-05-07T03:39:15;3.53;;;3.00;;
11151;SDS011;5630;49.342;10.802;2023-05-07T03:41:40;5.93;;;3.20;;
11151;SDS011;5630;49.342;10.802;2023-05-07T03:44:06;3.90;;;3.50;;
11151;SDS011;5630;49.342;10.802;2023-05-07T03:46:32;5.57;;;3.30;;
11151;SDS011;5630;49.342;10.802;2023-05-07T03:48:58;5.20;;;3.30;;
11151;SDS011;5630;49.342;10.802;2023-05-07T03:51:24;3.80;;;3.40;;
11151;SDS011;5630;49.342;10.802;2023-05-07T03:53:50;3.87;;;3.53;;
11151;SDS011;5630;49.342;10.802;2023-05-07T03:56:17;3.77;;;3.37;;
11151;SDS011;5630;49.342;10.802;2023-05-07T03:58:44;4.40;;;3.40;;
11151;SDS011;5630;49.342;10.802;2023-05-07T04:01:09;4.00;;;3.43;;
11151;SDS011;5630;49.342;10.802;2023-05-07T04:03:35;5.17;;;3.67;;
11151;SDS011;5630;49.342;10.802;2023-05-07T04:06:01;6.17;;;3.80;;
11151;SDS011;5630;49.342;10.802;2023-05-07T04:08:26;4.90;;;3.57;;
11151;SDS011;5630;49.342;10.802;2023-05-07T04:10:55;3.90;;;3.50;;
11151;SDS011;5630;49.342;10.802;2023-05-07T04:13:21;4.17;;;3.47;;
11151;SDS011;5630;49.342;10.802;2023-05-07T04:15:47;7.50;;;3.63;;
11151;SDS011;5630;49.342;10.802;2023-05-07T04:18:14;3.90;;;3.30;;
11151;SDS011;5630;49.342;10.802;2023-05-07T04:20:40;4.27;;;3.70;;
11151;SDS011;5630;49.342;10.802;2023-05-07T04:23:06;4.20;;;3.23;;
11151;SDS011;5630;49.342;10.802;2023-05-07T04:25:32;4.40;;;3.50;;
11151;SDS011;5630;49.342;10.802;2023-05-07T04:27:58;3.83;;;3.43;;
11151;SDS011;5630;49.342;10.802;2023-05-07T04:30:23;5.90;;;3.93;;
11151;SDS011;5630;49.342;10.802;2023-05-07T04:32:49;3.80;;;3.47;;
11151;SDS011;5630;49.342;10.802;2023-05-07T04:35:15;4.80;;;3.60;;
11151;SDS011;5630;49.342;10.802;2023-05-07T04:37:40;4.13;;;3.50;;
11151;SDS011;5630;49.342;10.802;2023-05-07T04:40:06;6.97;;;3.60;;
11151;SDS011;5630;49.342;10.802;2023-05-07T04:42:32;3.57;;;3.10;;
11151;SDS011;5630;49.342;10.802;2023-05-07T04:44:58;4.00;;;3.67;;
11151;SDS011;5630;49.342;10.802;2023-05-07T04:47:23;5.40;;;3.90;;
11151;SDS011;5630;49.342;10.802;2023-05-07T04:49:49;5.90;;;3.90;;
11151;SDS011;5630;49.342;10.802;2023-05-07T04:52:14;5.27;;;3.63;;
11151;SDS011;5630;49.342;10.802;2023-05-07T04:54:40;4.70;;;3.37;;
11151;SDS011;5630;49.342;10.802;2023-05-07T04:57:06;3.90;;;3.50;;
11151;SDS011;5630;49.342;10.802;2023-05-07T04:59:32;4.20;;;3.67;;
11151;SDS011;5630;49.342;10.802;2023-05-07T05:01:58;6.03;;;3.60;;
11151;SDS011;5630;49.342;10.802;2023-05-07T05:04:23;6.50;;;3.97;;
11151;SDS011;5630;49.342;10.802;2023-05-07T05:06:49;4.53;;;4.13;;
11151;SDS011;5630;49.342;10.802;2023-05-07T05:09:15;4.47;;;3.80;;
11151;SDS011;5630;49.342;10.802;2023-05-07T05:11:41;5.43;;;3.80;;
11151;SDS011;5630;49.342;10.802;2023-05-07T05:14:06;4.47;;;3.70;;
11151;SDS011;5630;49.342;10.802;2023-05-07T05:16:32;6.90;;;3.97;;
11151;SDS011;5630;49.342;10.802;2023-05-07T05:18:57;5.27;;;3.80;;
11151;SDS011;5630;49.342;10.802;2023-05-07T05:21:23;4.33;;;3.80;;
11151;SDS011;5630;49.342;10.802;2023-05-07T05:23:49;4.00;;;3.60;;
11151;SDS011;5630;49.342;10.802;2023-05-07T05:26:14;6.30;;;4.00;;
11151;SDS011;5630;49.342;10.802;2023-05-07T05:28:40;4.20;;;3.80;;
11151;SDS011;5630;49.342;10.802;2023-05-07T05:31:05;5.10;;;3.77;;
11151;SDS011;5630;49.342;10.802;2023-05-07T05:33:31;5.30;;;4.30;;
11151;SDS011;5630;49.342;10.802;2023-05-07T05:35:56;6.03;;;4.30;;
11151;SDS011;5630;49.342;10.802;2023-05-07T05:38:22;4.83;;;4.07;;
11151;SDS011;5630;49.342;10.802;2023-05-07T05:40:48;4.63;;;3.87;;
11151;SDS011;5630;49.342;10.802;2023-05-07T05:43:13;5.17;;;4.27;;
11151;SDS011;5630;49.342;10.802;2023-05-07T05:45:39;5.97;;;4.30;;
11151;SDS011;5630;49.342;10.802;2023-05-07T05:48:05;4.80;;;4.40;;
11151;SDS011;5630;49.342;10.802;2023-05-07T05:50:31;6.67;;;4.70;;
11151;SDS011;5630;49.342;10.802;2023-05-07T05:52:56;5.90;;;5.30;;
11151;SDS011;5630;49.342;10.802;2023-05-07T05:55:22;5.13;;;4.63;;
11151;SDS011;5630;49.342;10.802;2023-05-07T05:57:48;4.87;;;4.47;;
11151;SDS011;5630;49.342;10.802;2023-05-07T06:00:15;5.60;;;4.70;;
11151;SDS011;5630;49.342;10.802;2023-05-07T06:02:41;6.20;;;4.70;;
11151;SDS011;5630;49.342;10.802;2023-05-07T06:05:07;6.53;;;5.00;;
11151;SDS011;5630;49.342;10.802;2023-05-07T06:07:33;5.63;;;5.03;;
11151;SDS011;5630;49.342;10.802;2023-05-07T06:09:59;6.50;;;5.50;;
11151;SDS011;5630;49.342;10.802;2023-05-07T06:12:25;7.23;;;5.93;;
11151;SDS011;5630;49.342;10.802;2023-05-07T06:14:51;6.63;;;6.03;;
11151;SDS011;5630;49.342;10.802;2023-05-07T06:17:17;10.03;;;6.40;;
11151;SDS011;5630;49.342;10.802;2023-05-07T06:19:42;6.47;;;5.80;;
11151;SDS011;5630;49.342;10.802;2023-05-07T06:22:08;9.73;;;6.50;;
11151;SDS011;5630;49.342;10.802;2023-05-07T06:24:33;7.10;;;6.40;;
11151;SDS011;5630;49.342;10.802;2023-05-07T06:26:59;6.33;;;5.73;;
11151;SDS011;5630;49.342;10.802;2023-05-07T06:29:25;7.70;;;6.13;;
11151;SDS011;5630;49.342;10.802;2023-05-07T06:31:55;7.10;;;5.57;;
11151;SDS011;5630;49.342;10.802;2023-05-07T06:34:20;6.50;;;5.73;;
11151;SDS011;5630;49.342;10.802;2023-05-07T06:36:46;6.60;;;6.00;;
11151;SDS011;5630;49.342;10.802;2023-05-07T06:39:11;8.03;;;6.50;;
11151;SDS011;5630;49.342;10.802;2023-05-07T06:41:37;7.60;;;6.87;;
11151;SDS011;5630;49.342;10.802;2023-05-07T06:44:03;7.77;;;6.00;;
11151;SDS011;5630;49.342;10.802;2023-05-07T06:46:29;7.60;;;6.63;;
11151;SDS011;5630;49.342;10.802;2023-05-07T06:48:55;7.57;;;6.77;;
11151;SDS011;5630;49.342;10.802;2023-05-07T06:51:21;8.10;;;7.30;;
11151;SDS011;5630;49.342;10.802;2023-05-07T06:53:47;8.37;;;7.47;;
11151;SDS011;5630;49.342;10.802;2023-05-07T06:56:13;11.07;;;7.40;;
11151;SDS011;5630;49.342;10.802;2023-05-07T06:58:38;7.80;;;7.00;;
11151;SDS011;5630;49.342;10.802;2023-05-07T07:01:04;8.20;;;7.07;;
11151;SDS011;5630;49.342;10.802;2023-05-07T07:03:29;8.57;;;7.70;;
11151;SDS011;5630;49.342;10.802;2023-05-07T07:05:55;8.50;;;7.60;;
11151;SDS011;5630;49.342;10.802;2023-05-07T07:08:21;9.50;;;8.00;;
11151;SDS011;5630;49.342;10.802;2023-05-07T07:10:47;9.30;;;7.47;;
11151;SDS011;5630;49.342;10.802;2023-05-07T07:13:13;8.87;;;7.90;;
11151;SDS011;5630;49.342;10.802;2023-05-07T07:15:39;8.50;;;7.80;;
11151;SDS011;5630;49.342;10.802;2023-05-07T07:18:05;9.43;;;7.73;;
11151;SDS011;5630;49.342;10.802;2023-05-07T07:20:31;8.53;;;7.73;;
11151;SDS011;5630;49.342;10.802;2023-05-07T07:22:57;8.93;;;7.87;;
11151;SDS011;5630;49.342;10.802;2023-05-07T07:25:22;8.80;;;7.90;;
11151;SDS011;5630;49.342;10.802;2023-05-07T07:27:48;10.57;;;7.43;;
11151;SDS011;5630;49.342;10.802;2023-05-07T07:30:14;7.73;;;6.83;;
11151;SDS011;5630;49.342;10.802;2023-05-07T07:32:40;9.00;;;8.10;;
11151;SDS011;5630;49.342;10.802;2023-05-07T07:35:05;8.43;;;7.63;;
11151;SDS011;5630;49.342;10.802;2023-05-07T07:37:31;8.73;;;7.83;;
11151;SDS011;5630;49.342;10.802;2023-05-07T07:39:57;8.00;;;7.30;;
11151;SDS011;5630;49.342;10.802;2023-05-07T07:42:22;8.93;;;7.90;;
11151;SDS011;5630;49.342;10.802;2023-05-07T07:44:48;9.03;;;7.83;;
11151;SDS011;5630;49.342;10.802;2023-05-07T07:47:14;12.23;;;7.80;;
11151;SDS011;5630;49.342;10.802;2023-05-07T07:49:39;7.97;;;7.17;;
11151;SDS011;5630;49.342;10.802;2023-05-07T07:52:05;8.40;;;7.43;;
11151;SDS011;5630;49.342;10.802;2023-05-07T07:54:30;11.70;;;7.47;;
11151;SDS011;5630;49.342;10.802;2023-05-07T07:56:56;8.37;;;6.93;;
11151;SDS011;5630;49.342;10.802;2023-05-07T07:59:21;8.83;;;7.80;;
11151;SDS011;5630;49.342;10.802;2023-05-07T08:01:47;8.97;;;7.70;;
11151;SDS011;5630;49.342;10.802;2023-05-07T08:04:15;8.20;;;7.40;;
11151;SDS011;5630;49.342;10.802;2023-05-07T08:06:40;9.03;;;7.30;;
11151;SDS011;5630;49.342;10.802;2023-05-07T08:09:07;7.90;;;7.20;;
11151;SDS011;5630;49.342;10.802;2023-05-07T08:11:33;7.60;;;6.80;;
11151;SDS011;5630;49.342;10.802;2023-05-07T08:13:58;7.83;;;7.00;;
11151;SDS011;5630;49.342;10.802;2023-05-07T08:16:24;7.40;;;6.70;;
11151;SDS011;5630;49.342;10.802;2023-05-07T08:18:50;8.73;;;6.73;;
11151;SDS011;5630;49.342;10.802;2023-05-07T08:21:15;7.47;;;6.77;;
11151;SDS011;5630;49.342;10.802;2023-05-07T08:23:41;7.90;;;6.80;;
11151;SDS011;5630;49.342;10.802;2023-05-07T08:26:07;7.57;;;6.77;;
11151;SDS011;5630;49.342;10.802;2023-05-07T08:28:33;7.60;;;6.80;;
11151;SDS011;5630;49.342;10.802;2023-05-07T08:30:58;8.50;;;7.10;;
11151;SDS011;5630;49.342;10.802;2023-05-07T08:33:25;8.97;;;6.67;;
11151;SDS011;5630;49.342;10.802;2023-05-07T08:35:51;8.00;;;6.73;;
11151;SDS011;5630;49.342;10.802;2023-05-07T08:38:17;7.40;;;6.57;;
11151;SDS011;5630;49.342;10.802;2023-05-07T08:40:42;6.93;;;6.33;;
11151;SDS011;5630;49.342;10.802;2023-05-07T08:43:08;7.50;;;6.30;;
11151;SDS011;5630;49.342;10.802;2023-05-07T08:45:37;6.90;;;6.30;;
11151;SDS011;5630;49.342;10.802;2023-05-07T08:48:05;7.27;;;6.27;;
11151;SDS011;5630;49.342;10.802;2023-05-07T08:50:39;10.37;;;6.63;;
11151;SDS011;5630;49.342;10.802;2023-05-07T08:53:05;8.03;;;6.77;;
11151;SDS011;5630;49.342;10.802;2023-05-07T08:55:30;7.63;;;6.67;;
11151;SDS011;5630;49.342;10.802;2023-05-07T08:57:56;6.93;;;6.27;;
11151;SDS011;5630;49.342;10.802;2023-05-07T09:00:22;6.57;;;5.73;;
11151;SDS011;5630;49.342;10.802;2023-05-07T09:02:48;7.33;;;6.13;;
11151;SDS011;5630;49.342;10.802;2023-05-07T09:05:13;6.43;;;5.80;;
11151;SDS011;5630;49.342;10.802;2023-05-07T09:07:40;6.77;;;5.83;;
11151;SDS011;5630;49.342;10.802;2023-05-07T09:10:06;7.73;;;6.17;;
11151;SDS011;5630;49.342;10.802;2023-05-07T09:12:32;8.07;;;6.43;;
11151;SDS011;5630;49.342;10.802;2023-05-07T09:15:00;9.93;;;6.97;;
11151;SDS011;5630;49.342;10.802;2023-05-07T09:17:27;7.97;;;6.50;;
11151;SDS011;5630;49.342;10.802;2023-05-07T09:19:53;7.83;;;6.27;;
11151;SDS011;5630;49.342;10.802;2023-05-07T09:22:19;7.43;;;6.60;;
11151;SDS011;5630;49.342;10.802;2023-05-07T09:24:48;6.70;;;6.10;;
11151;SDS011;5630;49.342;10.802;2023-05-07T09:27:14;7.07;;;6.37;;
11151;SDS011;5630;49.342;10.802;2023-05-07T09:29:40;6.47;;;5.83;;
11151;SDS011;5630;49.342;10.802;2023-05-07T09:32:06;6.77;;;5.90;;
11151;SDS011;5630;49.342;10.802;2023-05-07T09:34:33;6.83;;;5.30;;
11151;SDS011;5630;49.342;10.802;2023-05-07T09:37:00;6.90;;;5.50;;
11151;SDS011;5630;49.342;10.802;2023-05-07T09:39:46;6.30;;;5.60;;
11151;SDS011;5630;49.342;10.802;2023-05-07T09:42:13;5.60;;;5.00;;
11151;SDS011;5630;49.342;10.802;2023-05-07T09:44:43;7.53;;;6.03;;
11151;SDS011;5630;49.342;10.802;2023-05-07T09:47:09;6.13;;;5.53;;
11151;SDS011;5630;49.342;10.802;2023-05-07T09:49:37;6.50;;;5.70;;
11151;SDS011;5630;49.342;10.802;2023-05-07T09:52:05;9.00;;;5.77;;
11151;SDS011;5630;49.342;10.802;2023-05-07T09:54:33;8.30;;;5.70;;
11151;SDS011;5630;49.342;10.802;2023-05-07T09:57:03;6.83;;;5.13;;
11151;SDS011;5630;49.342;10.802;2023-05-07T09:59:29;6.50;;;5.50;;
11151;SDS011;5630;49.342;10.802;2023-05-07T10:01:57;6.10;;;4.80;;
11151;SDS011;5630;49.342;10.802;2023-05-07T10:04:24;7.37;;;4.90;;
11151;SDS011;5630;49.342;10.802;2023-05-07T10:06:51;7.07;;;5.37;;
11151;SDS011;5630;49.342;10.802;2023-05-07T10:09:17;5.53;;;5.00;;
11151;SDS011;5630;49.342;10.802;2023-05-07T10:11:43;9.37;;;5.30;;
11151;SDS011;5630;49.342;10.802;2023-05-07T10:14:09;9.43;;;4.87;;
11151;SDS011;5630;49.342;10.802;2023-05-07T10:16:36;7.17;;;4.93;;
11151;SDS011;5630;49.342;10.802;2023-05-07T10:19:02;6.37;;;5.13;;
11151;SDS011;5630;49.342;10.802;2023-05-07T10:21:29;5.57;;;3.90;;
11151;SDS011;5630;49.342;10.802;2023-05-07T10:24:01;3.90;;;3.50;;
11151;SDS011;5630;49.342;10.802;2023-05-07T10:26:35;4.00;;;3.67;;
11151;SDS011;5630;49.342;10.802;2023-05-07T10:29:12;4.30;;;3.73;;
11151;SDS011;5630;49.342;10.802;2023-05-07T10:31:52;4.13;;;3.30;;
11151;SDS011;5630;49.342;10.802;2023-05-07T10:34:43;2.87;;;2.67;;
11151;SDS011;5630;49.342;10.802;2023-05-07T10:37:12;4.20;;;3.50;;
11151;SDS011;5630;49.342;10.802;2023-05-07T10:39:38;4.83;;;3.07;;
11151;SDS011;5630;49.342;10.802;2023-05-07T10:42:07;4.27;;;2.97;;
11151;SDS011;5630;49.342;10.802;2023-05-07T10:44:37;6.00;;;4.33;;
11151;SDS011;5630;49.342;10.802;2023-05-07T10:47:11;4.27;;;2.93;;
11151;SDS011;5630;49.342;10.802;2023-05-07T10:52:13;3.30;;;3.00;;
11151;SDS011;5630;49.342;10.802;2023-05-07T10:54:41;5.77;;;3.13;;
11151;SDS011;5630;49.342;10.802;2023-05-07T11:00:00;4.33;;;2.97;;
11151;SDS011;5630;49.342;10.802;2023-05-07T11:03:04;3.60;;;3.30;;
11151;SDS011;5630;49.342;10.802;2023-05-07T11:05:24;2.50;;;1.90;;
11151;SDS011;5630;49.342;10.802;2023-05-07T11:07:54;3.13;;;2.17;;
11151;SDS011;5630;49.342;10.802;2023-05-07T11:10:21;3.40;;;2.67;;
11151;SDS011;5630;49.342;10.802;2023-05-07T11:12:50;3.27;;;2.50;;
11151;SDS011;5630;49.342;10.802;2023-05-07T11:15:38;4.00;;;2.90;;
11151;SDS011;5630;49.342;10.802;2023-05-07T11:18:06;7.47;;;2.80;;
11151;SDS011;5630;49.342;10.802;2023-05-07T11:26:06;3.43;;;2.40;;
11151;SDS011;5630;49.342;10.802;2023-05-07T11:28:39;3.00;;;2.70;;
11151;SDS011;5630;49.342;10.802;2023-05-07T11:31:06;5.53;;;2.80;;
11151;SDS011;5630;49.342;10.802;2023-05-07T11:33:32;4.57;;;2.80;;
11151;SDS011;5630;49.342;10.802;2023-05-07T11:35:59;2.17;;;2.00;;
11151;SDS011;5630;49.342;10.802;2023-05-07T11:38:27;7.17;;;2.50;;
11151;SDS011;5630;49.342;10.802;2023-05-07T11:40:55;3.53;;;2.30;;
11151;SDS011;5630;49.342;10.802;2023-05-07T11:43:22;5.37;;;2.40;;
11151;SDS011;5630;49.342;10.802;2023-05-07T11:45:48;3.20;;;1.70;;
11151;SDS011;5630;49.342;10.802;2023-05-07T11:48:14;3.23;;;2.27;;
11151;SDS011;5630;49.342;10.802;2023-05-07T11:50:59;2.73;;;2.20;;
11151;SDS011;5630;49.342;10.802;2023-05-07T11:53:35;4.37;;;2.90;;
11151;SDS011;5630;49.342;10.802;2023-05-07T11:56:09;2.60;;;2.40;;
11151;SDS011;5630;49.342;10.802;2023-05-07T11:58:35;4.13;;;2.70;;
11151;SDS011;5630;49.342;10.802;2023-05-07T12:01:01;3.23;;;2.63;;
11151;SDS011;5630;49.342;10.802;2023-05-07T12:03:27;2.60;;;2.20;;
11151;SDS011;5630;49.342;10.802;2023-05-07T12:05:53;2.77;;;2.50;;
11151;SDS011;5630;49.342;10.802;2023-05-07T12:08:19;2.50;;;2.00;;
11151;SDS011;5630;49.342;10.802;2023-05-07T12:10:47;2.37;;;1.93;;
11151;SDS011;5630;49.342;10.802;2023-05-07T12:13:15;3.43;;;2.17;;
11151;SDS011;5630;49.342;10.802;2023-05-07T12:15:42;1.90;;;1.77;;
11151;SDS011;5630;49.342;10.802;2023-05-07T12:18:07;2.30;;;2.07;;
11151;SDS011;5630;49.342;10.802;2023-05-07T12:20:34;2.83;;;1.80;;
11151;SDS011;5630;49.342;10.802;2023-05-07T12:23:01;4.83;;;1.77;;
11151;SDS011;5630;49.342;10.802;2023-05-07T12:25:29;4.37;;;2.00;;
11151;SDS011;5630;49.342;10.802;2023-05-07T12:28:02;3.30;;;1.97;;
11151;SDS011;5630;49.342;10.802;2023-05-07T12:30:30;3.57;;;1.97;;
11151;SDS011;5630;49.342;10.802;2023-05-07T12:33:02;3.03;;;2.00;;
11151;SDS011;5630;49.342;10.802;2023-05-07T12:35:28;3.43;;;2.00;;
11151;SDS011;5630;49.342;10.802;2023-05-07T12:37:55;3.40;;;2.03;;
11151;SDS011;5630;49.342;10.802;2023-05-07T12:40:29;2.90;;;2.10;;
11151;SDS011;5630;49.342;10.802;2023-05-07T12:43:04;2.67;;;1.90;;
11151;SDS011;5630;49.342;10.802;2023-05-07T12:45:30;2.57;;;1.70;;
11151;SDS011;5630;49.342;10.802;2023-05-07T12:47:55;3.10;;;1.70;;
11151;SDS011;5630;49.342;10.802;2023-05-07T12:50:21;3.67;;;1.97;;
11151;SDS011;5630;49.342;10.802;2023-05-07T12:52:48;3.63;;;2.00;;
11151;SDS011;5630;49.342;10.802;2023-05-07T12:55:14;2.20;;;1.90;;
11151;SDS011;5630;49.342;10.802;2023-05-07T12:57:42;2.27;;;1.70;;
11151;SDS011;5630;49.342;10.802;2023-05-07T13:00:10;2.67;;;2.07;;
11151;SDS011;5630;49.342;10.802;2023-05-07T13:02:40;4.03;;;1.90;;
11151;SDS011;5630;49.342;10.802;2023-05-07T13:05:09;3.00;;;2.23;;
11151;SDS011;5630;49.342;10.802;2023-05-07T13:07:34;3.03;;;1.80;;
11151;SDS011;5630;49.342;10.802;2023-05-07T13:10:01;3.00;;;1.77;;
11151;SDS011;5630;49.342;10.802;2023-05-07T13:12:27;3.37;;;1.80;;
11151;SDS011;5630;49.342;10.802;2023-05-07T13:14:53;1.77;;;1.67;;
11151;SDS011;5630;49.342;10.802;2023-05-07T13:17:19;5.67;;;1.90;;
11151;SDS011;5630;49.342;10.802;2023-05-07T13:19:44;3.87;;;1.80;;
11151;SDS011;5630;49.342;10.802;2023-05-07T13:22:10;3.27;;;1.60;;
11151;SDS011;5630;49.342;10.802;2023-05-07T13:24:35;2.20;;;1.60;;
11151;SDS011;5630;49.342;10.802;2023-05-07T13:27:01;5.27;;;1.90;;
11151;SDS011;5630;49.342;10.802;2023-05-07T13:29:27;1.50;;;1.40;;
11151;SDS011;5630;49.342;10.802;2023-05-07T13:31:56;1.63;;;1.53;;
11151;SDS011;5630;49.342;10.802;2023-05-07T13:34:21;1.80;;;1.67;;
11151;SDS011;5630;49.342;10.802;2023-05-07T13:36:47;4.50;;;2.03;;
11151;SDS011;5630;49.342;10.802;2023-05-07T13:39:12;2.67;;;1.80;;
11151;SDS011;5630;49.342;10.802;2023-05-07T13:41:38;1.83;;;1.60;;
11151;SDS011;5630;49.342;10.802;2023-05-07T13:44:04;2.50;;;1.90;;
11151;SDS011;5630;49.342;10.802;2023-05-07T13:46:29;1.90;;;1.73;;
11151;SDS011;5630;49.342;10.802;2023-05-07T13:48:56;3.13;;;1.97;;
11151;SDS011;5630;49.342;10.802;2023-05-07T13:51:21;3.10;;;1.63;;
11151;SDS011;5630;49.342;10.802;2023-05-07T13:53:47;2.57;;;1.67;;
11151;SDS011;5630;49.342;10.802;2023-05-07T13:56:13;2.27;;;2.00;;
11151;SDS011;5630;49.342;10.802;2023-05-07T13:58:40;2.23;;;2.00;;
11151;SDS011;5630;49.342;10.802;2023-05-07T14:01:06;2.57;;;2.00;;
11151;SDS011;5630;49.342;10.802;2023-05-07T14:03:31;2.87;;;2.40;;
11151;SDS011;5630;49.342;10.802;2023-05-07T14:05:58;2.30;;;2.07;;
11151;SDS011;5630;49.342;10.802;2023-05-07T14:08:26;2.60;;;2.00;;
11151;SDS011;5630;49.342;10.802;2023-05-07T14:10:52;3.20;;;2.10;;
11151;SDS011;5630;49.342;10.802;2023-05-07T14:13:18;4.93;;;2.10;;
11151;SDS011;5630;49.342;10.802;2023-05-07T14:15:44;4.17;;;2.37;;
11151;SDS011;5630;49.342;10.802;2023-05-07T14:18:12;2.53;;;2.03;;
11151;SDS011;5630;49.342;10.802;2023-05-07T14:20:38;3.10;;;2.30;;
11151;SDS011;5630;49.342;10.802;2023-05-07T14:23:04;2.97;;;2.30;;
11151;SDS011;5630;49.342;10.802;2023-05-07T14:25:30;2.30;;;2.10;;
11151;SDS011;5630;49.342;10.802;2023-05-07T14:27:55;4.40;;;2.40;;
11151;SDS011;5630;49.342;10.802;2023-05-07T14:30:21;2.43;;;2.23;;
11151;SDS011;5630;49.342;10.802;2023-05-07T14:32:49;2.87;;;2.40;;
11151;SDS011;5630;49.342;10.802;2023-05-07T14:35:15;2.80;;;2.60;;
11151;SDS011;5630;49.342;10.802;2023-05-07T14:37:41;2.30;;;2.10;;
11151;SDS011;5630;49.342;10.802;2023-05-07T14:40:07;4.63;;;2.10;;
11151;SDS011;5630;49.342;10.802;2023-05-07T14:42:33;2.73;;;2.30;;
11151;SDS011;5630;49.342;10.802;2023-05-07T14:44:59;2.60;;;2.40;;
11151;SDS011;5630;49.342;10.802;2023-05-07T14:47:24;2.37;;;2.13;;
11151;SDS011;5630;49.342;10.802;2023-05-07T14:49:50;2.97;;;2.53;;
11151;SDS011;5630;49.342;10.802;2023-05-07T14:52:16;2.87;;;2.27;;
11151;SDS011;5630;49.342;10.802;2023-05-07T14:54:41;3.33;;;2.50;;
11151;SDS011;5630;49.342;10.802;2023-05-07T14:57:07;3.00;;;2.27;;